createdAt,value
2023-08-08T00:00:30.048Z,42.66
2023-08-08T00:02:56.892Z,42.60
2023-08-08T00:05:23.935Z,42.63
2023-08-08T00:07:50.707Z,42.69
2023-08-08T00:10:17.388Z,42.61
2023-08-08T00:12:44.077Z,42.63
2023-08-08T00:15:10.882Z,42.60
2023-08-08T00:17:37.590Z,42.57
2023-08-08T00:20:05.033Z,42.50
2023-08-08T00:22:31.674Z,42.50
2023-08-08T00:24:58.528Z,42.47
2023-08-08T00:27:25.125Z,42.56
2023-08-08T00:29:52.103Z,42.52
2023-08-08T00:32:18.743Z,42.56
2023-08-08T00:34:45.790Z,42.58
2023-08-08T00:37:12.457Z,42.59
2023-08-08T00:39:39.103Z,42.53
2023-08-08T00:42:05.868Z,42.49
2023-08-08T00:44:32.577Z,42.59
2023-08-08T00:46:59.278Z,42.53
2023-08-08T00:49:25.999Z,42.57
2023-08-08T00:51:52.658Z,42.46
2023-08-08T00:54:19.346Z,42.44
2023-08-08T00:56:45.965Z,42.53
2023-08-08T00:59:12.707Z,42.50
2023-08-08T01:01:39.417Z,42.50
2023-08-08T01:04:08.101Z,42.51
2023-08-08T01:06:45.383Z,42.52
2023-08-08T01:09:22.775Z,42.52
2023-08-08T01:11:51.044Z,42.41
2023-08-08T01:14:17.810Z,42.51
2023-08-08T01:16:44.566Z,42.55
2023-08-08T01:19:13.001Z,42.48
2023-08-08T01:21:42.139Z,42.47
2023-08-08T01:24:21.349Z,42.48
2023-08-08T01:26:48.041Z,42.41
2023-08-08T01:29:14.677Z,42.56
2023-08-08T01:31:41.387Z,42.53
2023-08-08T01:34:08.039Z,42.43
2023-08-08T01:36:46.689Z,42.50
2023-08-08T01:39:17.167Z,42.48
2023-08-08T01:41:43.835Z,42.47
2023-08-08T01:44:10.602Z,42.46
2023-08-08T01:46:37.724Z,42.47
2023-08-08T01:49:04.686Z,42.50
2023-08-08T01:51:31.421Z,42.54
2023-08-08T01:53:58.104Z,42.54
2023-08-08T01:56:24.719Z,42.55
2023-08-08T01:58:51.395Z,42.58
2023-08-08T02:01:18.086Z,42.59
2023-08-08T02:03:44.783Z,42.55
2023-08-08T02:06:11.520Z,42.55
2023-08-08T02:08:38.175Z,42.59
2023-08-08T02:11:07.349Z,42.60
2023-08-08T02:13:34.020Z,42.58
2023-08-08T02:16:00.801Z,42.59
2023-08-08T02:18:27.521Z,42.64
2023-08-08T02:20:54.253Z,42.61
2023-08-08T02:23:20.956Z,42.59
2023-08-08T02:25:47.611Z,42.64
2023-08-08T02:28:14.227Z,42.67
2023-08-08T02:30:40.863Z,42.65
2023-08-08T02:33:07.537Z,42.58
2023-08-08T02:35:34.212Z,42.62
2023-08-08T02:38:00.853Z,42.68
2023-08-08T02:40:28.203Z,42.66
2023-08-08T02:42:54.906Z,42.65
2023-08-08T02:45:21.547Z,42.69
2023-08-08T02:47:48.782Z,42.65
2023-08-08T02:50:15.516Z,42.66
2023-08-08T02:52:42.141Z,42.69
2023-08-08T02:55:09.290Z,42.70
2023-08-08T02:57:35.988Z,42.70
2023-08-08T03:00:03.658Z,42.72
2023-08-08T03:02:30.340Z,42.67
2023-08-08T03:04:57.102Z,42.67
2023-08-08T03:07:23.753Z,42.74
2023-08-08T03:09:50.358Z,42.69
2023-08-08T03:12:17.021Z,42.72
2023-08-08T03:14:43.700Z,42.65
2023-08-08T03:17:10.396Z,42.68
2023-08-08T03:19:37.053Z,42.70
2023-08-08T03:22:04.117Z,42.75
2023-08-08T03:24:30.938Z,42.71
2023-08-08T03:26:57.565Z,42.72
2023-08-08T03:29:24.209Z,42.64
2023-08-08T03:31:50.931Z,42.69
2023-08-08T03:34:17.633Z,42.71
2023-08-08T03:36:44.358Z,42.76
2023-08-08T03:39:10.993Z,42.70
2023-08-08T03:41:38.055Z,42.71
2023-08-08T03:44:04.990Z,42.72
2023-08-08T03:46:31.723Z,42.72
2023-08-08T03:48:58.441Z,42.73
2023-08-08T03:51:25.111Z,42.78
2023-08-08T03:53:51.783Z,42.72
2023-08-08T03:56:18.419Z,42.75
2023-08-08T03:58:45.089Z,42.80
2023-08-08T04:01:12.115Z,42.76
2023-08-08T04:03:38.914Z,42.72
2023-08-08T04:06:05.666Z,42.75
2023-08-08T04:08:32.641Z,42.78
2023-08-08T04:10:59.404Z,42.73
2023-08-08T04:13:26.091Z,42.75
2023-08-08T04:15:53.102Z,42.73
2023-08-08T04:18:19.884Z,42.85
2023-08-08T04:20:47.285Z,41.71
2023-08-08T04:23:14.450Z,40.50
2023-08-08T04:25:41.102Z,40.71
2023-08-08T04:28:07.754Z,41.02
2023-08-08T04:30:34.344Z,43.57
2023-08-08T04:33:01.016Z,41.93
2023-08-08T04:35:27.685Z,41.46
2023-08-08T04:37:54.348Z,41.13
2023-08-08T04:40:21.048Z,41.34
2023-08-08T04:42:47.730Z,41.49
2023-08-08T04:45:15.184Z,41.63
2023-08-08T04:47:41.923Z,41.54
2023-08-08T04:50:09.008Z,41.32
2023-08-08T04:52:35.706Z,41.66
2023-08-08T04:55:02.390Z,41.65
2023-08-08T04:57:29.032Z,42.04
2023-08-08T04:59:56.209Z,41.86
2023-08-08T05:02:23.069Z,41.77
2023-08-08T05:04:51.084Z,42.22
2023-08-08T05:07:17.752Z,41.66
2023-08-08T05:09:44.470Z,42.10
2023-08-08T05:12:11.192Z,41.97
2023-08-08T05:14:38.062Z,41.89
2023-08-08T05:17:05.211Z,41.64
2023-08-08T05:19:34.988Z,41.54
2023-08-08T05:22:02.154Z,41.43
2023-08-08T05:24:30.847Z,41.66
2023-08-08T05:26:57.688Z,41.56
2023-08-08T05:29:24.409Z,41.48
2023-08-08T05:31:51.051Z,41.56
2023-08-08T05:34:17.739Z,41.50
2023-08-08T05:36:44.337Z,41.48
2023-08-08T05:39:10.955Z,41.75
2023-08-08T05:41:37.630Z,41.97
2023-08-08T05:44:04.434Z,41.97
2023-08-08T05:46:31.191Z,41.76
2023-08-08T05:48:57.854Z,41.93
2023-08-08T05:51:24.762Z,42.12
2023-08-08T05:53:51.397Z,41.90
2023-08-08T05:56:18.174Z,42.21
2023-08-08T05:58:45.412Z,42.29
2023-08-08T06:01:13.066Z,42.23
2023-08-08T06:03:39.947Z,42.35
2023-08-08T06:06:07.551Z,42.37
2023-08-08T06:08:34.323Z,41.86
2023-08-08T06:11:01.062Z,42.25
2023-08-08T06:13:27.675Z,42.30
2023-08-08T06:15:54.428Z,42.48
2023-08-08T06:18:21.181Z,42.07
2023-08-08T06:20:47.955Z,42.18
2023-08-08T06:23:16.252Z,42.46
2023-08-08T06:25:43.160Z,43.81
2023-08-08T06:28:10.042Z,44.51
2023-08-08T06:30:36.701Z,44.32
2023-08-08T06:33:03.453Z,43.95
2023-08-08T06:35:30.140Z,43.94
2023-08-08T06:37:56.782Z,43.84
2023-08-08T06:40:27.507Z,44.02
2023-08-08T06:42:54.222Z,44.14
2023-08-08T06:45:21.004Z,43.97
2023-08-08T06:47:47.772Z,43.98
2023-08-08T06:50:14.498Z,43.96
2023-08-08T06:52:41.446Z,44.05
2023-08-08T06:55:08.486Z,43.77
2023-08-08T06:57:35.464Z,43.71
2023-08-08T07:00:02.668Z,43.70
2023-08-08T07:02:29.477Z,43.61
2023-08-08T07:04:56.256Z,43.36
2023-08-08T07:07:23.115Z,43.49
2023-08-08T07:09:50.137Z,43.79
2023-08-08T07:12:17.435Z,43.72
2023-08-08T07:14:46.902Z,43.70
2023-08-08T07:17:13.639Z,43.67
2023-08-08T07:19:40.432Z,43.80
2023-08-08T07:22:07.103Z,43.90
2023-08-08T07:24:33.807Z,43.84
2023-08-08T07:27:00.768Z,43.55
2023-08-08T07:29:27.513Z,43.48
2023-08-08T07:31:59.051Z,43.40
2023-08-08T07:34:26.205Z,43.21
2023-08-08T07:36:52.953Z,43.03
2023-08-08T07:39:19.626Z,42.76
2023-08-08T07:41:46.347Z,42.68
2023-08-08T07:44:13.101Z,42.64
2023-08-08T07:46:39.888Z,42.67
2023-08-08T07:49:07.711Z,42.56
2023-08-08T07:51:34.439Z,42.30
2023-08-08T07:54:01.669Z,42.12
2023-08-08T07:56:28.340Z,41.95
2023-08-08T07:58:55.125Z,41.95
2023-08-08T08:01:21.825Z,41.87
2023-08-08T08:03:48.868Z,41.85
2023-08-08T08:06:15.545Z,41.82
2023-08-08T08:08:42.222Z,41.74
2023-08-08T08:11:08.876Z,41.66
2023-08-08T08:13:35.584Z,41.69
2023-08-08T08:16:02.300Z,41.49
2023-08-08T08:18:29.980Z,41.70
2023-08-08T08:20:56.857Z,41.34
2023-08-08T08:23:23.592Z,41.54
2023-08-08T08:25:51.611Z,41.79
2023-08-08T08:28:18.730Z,41.26
2023-08-08T08:30:45.480Z,41.28
2023-08-08T08:33:12.413Z,41.28
2023-08-08T08:35:39.078Z,41.60
2023-08-08T08:38:05.710Z,42.02
2023-08-08T08:40:35.332Z,42.12
2023-08-08T08:43:02.164Z,42.07
2023-08-08T08:45:28.955Z,42.03
2023-08-08T08:47:55.857Z,41.80
2023-08-08T08:50:23.395Z,41.84
2023-08-08T08:52:50.025Z,41.35
2023-08-08T08:55:16.735Z,41.29
2023-08-08T08:57:43.525Z,41.41
2023-08-08T09:00:12.077Z,40.92
2023-08-08T09:02:38.886Z,40.61
2023-08-08T09:05:05.877Z,40.19
2023-08-08T09:07:33.208Z,39.62
2023-08-08T09:09:59.825Z,39.80
2023-08-08T09:12:26.485Z,40.21
2023-08-08T09:14:59.574Z,40.56
2023-08-08T09:17:37.897Z,40.75
2023-08-08T09:20:14.081Z,40.70
2023-08-08T09:22:40.701Z,40.73
2023-08-08T09:25:09.111Z,41.09
2023-08-08T09:27:36.569Z,41.13
2023-08-08T09:30:03.771Z,41.14
2023-08-08T09:32:31.747Z,41.24
2023-08-08T09:34:58.900Z,41.27
2023-08-08T09:37:25.689Z,41.24
2023-08-08T09:39:59.375Z,41.33
2023-08-08T09:42:27.168Z,41.33
2023-08-08T09:44:54.648Z,41.24
2023-08-08T09:47:23.343Z,41.24
2023-08-08T09:49:50.494Z,41.08
2023-08-08T09:52:17.859Z,41.18
2023-08-08T09:54:44.568Z,41.29
2023-08-08T09:57:11.290Z,41.25
2023-08-08T09:59:38.644Z,41.07
2023-08-08T10:02:06.398Z,40.31
2023-08-08T10:04:33.299Z,40.04
2023-08-08T10:06:59.918Z,40.01
2023-08-08T10:09:26.606Z,40.00
2023-08-08T10:11:53.356Z,39.87
2023-08-08T10:14:20.379Z,39.81
2023-08-08T10:16:47.346Z,39.81
2023-08-08T10:19:14.001Z,39.66
2023-08-08T10:21:46.456Z,39.67
2023-08-08T10:24:13.281Z,39.57
2023-08-08T10:27:01.320Z,39.41
2023-08-08T10:29:28.358Z,39.50
2023-08-08T10:31:59.535Z,39.83
2023-08-08T10:34:45.203Z,39.97
2023-08-08T10:37:13.310Z,40.06
2023-08-08T10:39:59.313Z,40.06
2023-08-08T10:42:27.214Z,40.23
2023-08-08T10:44:58.475Z,40.26
2023-08-08T10:47:32.201Z,40.15
2023-08-08T10:50:23.133Z,39.97
2023-08-08T10:52:53.839Z,40.00
2023-08-08T10:55:21.182Z,40.01
2023-08-08T10:58:04.277Z,40.24
2023-08-08T11:00:35.791Z,40.31
2023-08-08T11:03:03.736Z,40.42
2023-08-08T11:05:30.899Z,40.40
2023-08-08T11:07:57.706Z,39.46
2023-08-08T11:10:24.538Z,39.45
2023-08-08T11:13:05.044Z,39.59
2023-08-08T11:15:34.014Z,39.53
2023-08-08T11:18:01.226Z,39.26
2023-08-08T11:20:31.361Z,38.74
2023-08-08T11:22:58.115Z,38.60
2023-08-08T11:25:28.561Z,38.54
2023-08-08T11:27:55.798Z,38.38
2023-08-08T11:30:22.608Z,38.45
2023-08-08T11:33:15.325Z,38.30
2023-08-08T11:35:36.379Z,38.70
2023-08-08T11:38:03.512Z,38.06
2023-08-08T11:40:30.679Z,37.84
2023-08-08T11:43:00.832Z,37.99
2023-08-08T11:45:27.608Z,37.99
2023-08-08T11:47:55.805Z,37.81
2023-08-08T11:50:24.387Z,37.64
2023-08-08T11:52:52.703Z,37.79
2023-08-08T11:55:23.337Z,37.51
2023-08-08T11:57:50.498Z,37.49
2023-08-08T12:00:17.393Z,37.35
2023-08-08T12:02:44.145Z,37.51
2023-08-08T12:05:13.154Z,37.75
2023-08-08T12:07:43.279Z,37.90
2023-08-08T12:10:20.851Z,37.46
2023-08-08T12:12:48.076Z,37.30
2023-08-08T12:15:16.695Z,36.94
2023-08-08T12:17:44.097Z,36.85
2023-08-08T12:20:11.326Z,36.73
2023-08-08T12:22:38.254Z,36.67
2023-08-08T12:25:05.463Z,36.08
2023-08-08T12:27:32.186Z,35.97
2023-08-08T12:29:59.004Z,36.58
2023-08-08T12:32:28.027Z,36.71
2023-08-08T12:34:54.811Z,36.85
2023-08-08T12:37:21.477Z,36.99
2023-08-08T12:39:48.275Z,36.89
2023-08-08T12:42:15.000Z,36.89
2023-08-08T12:44:41.725Z,37.29
2023-08-08T12:47:08.528Z,37.23
2023-08-08T12:49:35.301Z,37.40
2023-08-08T12:52:02.089Z,37.29
2023-08-08T12:54:28.761Z,36.96
2023-08-08T12:56:55.374Z,36.31
2023-08-08T12:59:21.986Z,36.69
2023-08-08T13:01:48.712Z,36.69
2023-08-08T13:04:19.935Z,37.08
2023-08-08T13:06:48.786Z,37.32
2023-08-08T13:09:16.664Z,37.16
2023-08-08T13:11:43.430Z,37.30
2023-08-08T13:14:10.352Z,36.90
2023-08-08T13:16:37.087Z,37.10
2023-08-08T13:19:04.765Z,36.61
2023-08-08T13:21:31.460Z,36.76
2023-08-08T13:23:58.709Z,36.79
2023-08-08T13:26:25.410Z,36.47
2023-08-08T13:28:52.126Z,36.97
2023-08-08T13:31:18.909Z,36.59
2023-08-08T13:33:45.653Z,36.89
2023-08-08T13:36:12.344Z,36.51
2023-08-08T13:38:39.089Z,36.43
2023-08-08T13:41:05.740Z,36.06
2023-08-08T13:43:32.430Z,35.99
2023-08-08T13:45:59.162Z,35.15
2023-08-08T13:48:26.030Z,35.42
2023-08-08T13:50:53.918Z,35.55
2023-08-08T13:53:20.587Z,34.63
2023-08-08T13:55:47.455Z,35.20
2023-08-08T13:58:14.095Z,35.27
2023-08-08T14:00:40.728Z,34.87
2023-08-08T14:03:07.392Z,35.29
2023-08-08T14:05:34.265Z,35.29
2023-08-08T14:08:01.023Z,35.69
2023-08-08T14:10:27.739Z,35.96
2023-08-08T14:12:54.383Z,36.70
2023-08-08T14:15:21.108Z,36.71
2023-08-08T14:17:47.797Z,36.81
2023-08-08T14:20:14.457Z,36.89
2023-08-08T14:22:41.152Z,37.01
2023-08-08T14:25:08.231Z,37.03
2023-08-08T14:27:34.920Z,37.05
2023-08-08T14:30:03.246Z,37.17
2023-08-08T14:32:29.995Z,37.26
2023-08-08T14:34:59.556Z,37.31
2023-08-08T14:37:26.676Z,37.37
2023-08-08T14:39:54.196Z,37.47
2023-08-08T14:42:21.347Z,37.48
2023-08-08T14:44:48.057Z,37.50
2023-08-08T14:47:14.898Z,37.56
2023-08-08T14:49:41.529Z,37.62
2023-08-08T14:52:09.919Z,37.64
2023-08-08T14:54:36.864Z,37.66
2023-08-08T14:57:03.777Z,37.66
2023-08-08T14:59:30.533Z,37.69
2023-08-08T15:01:57.328Z,37.69
2023-08-08T15:04:24.026Z,37.71
2023-08-08T15:06:50.873Z,37.70
2023-08-08T15:09:17.571Z,37.78
2023-08-08T15:11:44.364Z,37.79
2023-08-08T15:14:11.012Z,37.83
2023-08-08T15:16:37.685Z,37.83
2023-08-08T15:19:04.889Z,37.86
2023-08-08T15:21:31.629Z,37.90
2023-08-08T15:23:58.490Z,37.90
2023-08-08T15:26:25.593Z,37.92
2023-08-08T15:28:52.377Z,37.95
2023-08-08T15:31:19.088Z,37.97
2023-08-08T15:33:46.551Z,37.99
2023-08-08T15:36:13.329Z,38.03
2023-08-08T15:38:40.046Z,38.07
2023-08-08T15:41:06.734Z,38.07
2023-08-08T15:43:33.483Z,38.05
2023-08-08T15:46:00.645Z,38.07
2023-08-08T15:48:31.124Z,38.11
2023-08-08T15:50:57.812Z,38.16
2023-08-08T15:53:24.538Z,38.11
2023-08-08T15:55:53.697Z,38.12
2023-08-08T15:58:20.623Z,38.10
2023-08-08T16:00:47.320Z,38.14
2023-08-08T16:03:13.992Z,38.04
2023-08-08T16:05:40.897Z,38.01
2023-08-08T16:08:08.248Z,38.10
2023-08-08T16:10:35.042Z,38.11
2023-08-08T16:13:01.727Z,38.06
2023-08-08T16:15:28.571Z,38.04
2023-08-08T16:17:55.268Z,38.05
2023-08-08T16:20:22.057Z,38.03
2023-08-08T16:22:49.491Z,37.99
2023-08-08T16:25:16.107Z,38.03
2023-08-08T16:27:42.762Z,38.02
2023-08-08T16:30:09.993Z,38.06
2023-08-08T16:32:36.807Z,38.06
2023-08-08T16:35:03.592Z,38.05
2023-08-08T16:37:30.251Z,37.99
2023-08-08T16:39:57.274Z,37.95
2023-08-08T16:42:23.896Z,38.03
2023-08-08T16:44:50.578Z,38.03
2023-08-08T16:47:18.037Z,38.05
2023-08-08T16:49:44.729Z,38.02
2023-08-08T16:52:11.401Z,38.07
2023-08-08T16:54:38.124Z,38.13
2023-08-08T16:57:04.813Z,38.10
2023-08-08T16:59:31.496Z,38.09
2023-08-08T17:01:58.414Z,38.11
2023-08-08T17:04:25.400Z,38.12
2023-08-08T17:06:52.081Z,38.14
2023-08-08T17:09:18.773Z,38.16
2023-08-08T17:11:45.488Z,38.18
2023-08-08T17:14:12.172Z,38.18
2023-08-08T17:16:39.501Z,38.17
2023-08-08T17:19:06.270Z,38.20
2023-08-08T17:21:32.925Z,38.18
2023-08-08T17:23:59.628Z,38.23
2023-08-08T17:26:26.541Z,38.23
2023-08-08T17:28:53.313Z,38.26
2023-08-08T17:31:20.205Z,38.24
2023-08-08T17:33:46.884Z,38.24
2023-08-08T17:36:13.666Z,38.24
2023-08-08T17:38:40.422Z,38.26
2023-08-08T17:41:07.199Z,38.27
2023-08-08T17:43:33.868Z,38.28
2023-08-08T17:46:00.524Z,38.30
2023-08-08T17:48:27.239Z,38.29
2023-08-08T17:50:56.994Z,38.28
2023-08-08T17:53:23.936Z,38.31
2023-08-08T17:55:50.689Z,38.33
2023-08-08T17:58:17.813Z,38.37
2023-08-08T18:00:44.730Z,38.34
2023-08-08T18:03:11.586Z,38.35
2023-08-08T18:05:38.297Z,38.37
2023-08-08T18:08:05.417Z,38.34
2023-08-08T18:10:35.862Z,38.38
2023-08-08T18:13:06.172Z,38.41
2023-08-08T18:15:32.873Z,38.40
2023-08-08T18:18:01.285Z,38.43
2023-08-08T18:20:28.125Z,38.43
2023-08-08T18:22:54.848Z,38.45
2023-08-08T18:25:21.474Z,38.43
2023-08-08T18:27:48.219Z,38.45
2023-08-08T18:30:16.516Z,38.47
2023-08-08T18:32:43.917Z,38.46
2023-08-08T18:35:10.762Z,38.50
2023-08-08T18:37:38.922Z,38.50
2023-08-08T18:40:12.538Z,38.50
2023-08-08T18:42:39.729Z,38.54
2023-08-08T18:45:06.937Z,38.56
2023-08-08T18:47:33.674Z,38.58
2023-08-08T18:50:00.427Z,38.54
2023-08-08T18:52:27.116Z,38.58
2023-08-08T18:54:53.709Z,38.59
2023-08-08T18:57:20.401Z,38.61
2023-08-08T18:59:47.006Z,38.59
2023-08-08T19:02:13.669Z,38.63
2023-08-08T19:04:40.323Z,38.64
2023-08-08T19:07:09.123Z,38.66
2023-08-08T19:09:35.850Z,38.67
2023-08-08T19:12:02.916Z,38.67
2023-08-08T19:14:29.987Z,38.67
2023-08-08T19:16:56.695Z,38.70
2023-08-08T19:19:23.367Z,38.73
2023-08-08T19:21:49.980Z,38.77
2023-08-08T19:24:17.418Z,38.75
2023-08-08T19:26:44.218Z,38.77
2023-08-08T19:29:10.849Z,38.77
2023-08-08T19:31:37.536Z,38.78
2023-08-08T19:34:07.106Z,38.82
2023-08-08T19:36:34.936Z,38.82
2023-08-08T19:39:01.593Z,38.84
2023-08-08T19:41:28.260Z,38.85
2023-08-08T19:43:55.025Z,38.87
2023-08-08T19:46:21.937Z,38.88
2023-08-08T19:48:49.801Z,38.91
2023-08-08T19:51:16.759Z,38.93
2023-08-08T19:53:43.462Z,38.94
2023-08-08T19:56:10.072Z,38.98
2023-08-08T19:58:36.844Z,38.96
2023-08-08T20:01:03.741Z,39.00
2023-08-08T20:03:30.628Z,39.00
2023-08-08T20:05:57.274Z,39.03
2023-08-08T20:08:24.047Z,39.04
2023-08-08T20:10:50.997Z,39.06
2023-08-08T20:13:17.733Z,39.08
2023-08-08T20:15:44.452Z,39.13
2023-08-08T20:18:11.178Z,39.16
2023-08-08T20:20:37.935Z,39.13
2023-08-08T20:23:04.601Z,39.16
2023-08-08T20:25:31.189Z,39.17
2023-08-08T20:27:58.006Z,39.17
2023-08-08T20:30:24.774Z,39.21
2023-08-08T20:32:51.579Z,39.23
2023-08-08T20:35:18.386Z,39.28
2023-08-08T20:37:45.341Z,39.29
2023-08-08T20:40:12.011Z,39.30
2023-08-08T20:42:38.725Z,39.35
2023-08-08T20:45:06.679Z,39.36
2023-08-08T20:47:33.603Z,39.38
2023-08-08T20:50:00.362Z,39.37
2023-08-08T20:52:27.045Z,39.40
2023-08-08T20:54:53.686Z,39.46
2023-08-08T20:57:20.334Z,39.51
2023-08-08T20:59:47.023Z,39.53
2023-08-08T21:02:13.725Z,39.52
2023-08-08T21:04:40.405Z,39.55
2023-08-08T21:07:07.492Z,39.62
2023-08-08T21:09:34.183Z,39.59
2023-08-08T21:12:00.838Z,39.60
2023-08-08T21:14:27.529Z,39.68
2023-08-08T21:16:54.284Z,39.68
2023-08-08T21:19:23.116Z,39.77
2023-08-08T21:21:49.848Z,39.71
2023-08-08T21:24:16.462Z,39.82
2023-08-08T21:26:43.141Z,39.82
2023-08-08T21:29:09.844Z,39.89
2023-08-08T21:31:36.466Z,39.90
2023-08-08T21:34:06.286Z,40.06
2023-08-08T21:36:33.032Z,40.02
2023-08-08T21:38:59.944Z,40.04
2023-08-08T21:41:27.686Z,40.10
2023-08-08T21:43:54.782Z,40.23
2023-08-08T21:46:21.590Z,40.16
2023-08-08T21:48:48.361Z,40.25
2023-08-08T21:51:15.035Z,40.31
2023-08-08T21:53:41.777Z,40.29
2023-08-08T21:56:08.644Z,40.42
2023-08-08T21:58:35.443Z,40.50
2023-08-08T22:01:02.230Z,40.41
2023-08-08T22:03:28.938Z,40.50
2023-08-08T22:05:55.581Z,40.56
2023-08-08T22:08:22.169Z,40.67
2023-08-08T22:10:48.909Z,40.70
2023-08-08T22:13:15.587Z,40.55
2023-08-08T22:15:42.217Z,40.70
2023-08-08T22:18:18.716Z,40.73
2023-08-08T22:20:46.569Z,40.65
2023-08-08T22:23:19.365Z,40.72
2023-08-08T22:25:47.435Z,40.88
2023-08-08T22:28:14.033Z,40.79
2023-08-08T22:30:40.750Z,40.73
2023-08-08T22:33:07.557Z,40.87
2023-08-08T22:35:34.282Z,40.92
2023-08-08T22:38:00.922Z,40.94
2023-08-08T22:40:27.580Z,40.94
2023-08-08T22:42:54.279Z,41.01
2023-08-08T22:45:20.897Z,41.00
2023-08-08T22:47:47.601Z,41.03
2023-08-08T22:50:14.387Z,41.06
2023-08-08T22:52:41.092Z,41.02
2023-08-08T22:55:08.084Z,41.06
2023-08-08T22:57:34.823Z,41.12
2023-08-08T23:00:01.595Z,41.12
2023-08-08T23:02:28.300Z,41.11
2023-08-08T23:04:55.131Z,41.14
2023-08-08T23:07:21.820Z,41.10
2023-08-08T23:09:49.664Z,41.11
2023-08-08T23:12:16.717Z,41.26
2023-08-08T23:14:43.529Z,41.25
2023-08-08T23:17:10.653Z,41.25
2023-08-08T23:19:37.508Z,41.29
2023-08-08T23:22:04.784Z,41.26
2023-08-08T23:24:31.534Z,41.27
2023-08-08T23:26:58.284Z,41.32
2023-08-08T23:29:25.709Z,41.35
2023-08-08T23:31:52.484Z,41.30
2023-08-08T23:34:19.203Z,41.37
2023-08-08T23:36:45.911Z,41.35
2023-08-08T23:39:12.952Z,41.43
2023-08-08T23:41:39.679Z,41.36
2023-08-08T23:44:06.681Z,41.38
2023-08-08T23:46:33.382Z,41.44
2023-08-08T23:49:00.077Z,41.38
2023-08-08T23:51:26.766Z,41.42
2023-08-08T23:53:53.436Z,41.45
2023-08-08T23:56:20.087Z,41.45
2023-08-08T23:58:46.734Z,41.45
